sensor_id;sensor_type;location;lat;lon;timestamp;P1;durP1;ratioP1;P2;durP2;ratioP2
20014;SDS011;61787;42.022;23.078;2023-01-05T00:00:11;36.43;;;25.77;;
20014;SDS011;61787;42.022;23.078;2023-01-05T00:01:13;36.43;;;25.43;;
20014;SDS011;61787;42.022;23.078;2023-01-05T00:02:15;38.13;;;26.67;;
20014;SDS011;61787;42.022;23.078;2023-01-05T00:03:24;39.40;;;26.93;;
20014;SDS011;61787;42.022;23.078;2023-01-05T00:04:25;41.23;;;27.70;;
20014;SDS011;61787;42.022;23.078;2023-01-05T00:05:27;42.77;;;27.80;;
20014;SDS011;61787;42.022;23.078;2023-01-05T00:06:30;39.40;;;27.13;;
20014;SDS011;61787;42.022;23.078;2023-01-05T00:07:31;42.27;;;27.03;;
20014;SDS011;61787;42.022;23.078;2023-01-05T00:08:33;38.13;;;27.07;;
20014;SDS011;61787;42.022;23.078;2023-01-05T00:09:37;36.63;;;26.20;;
20014;SDS011;61787;42.022;23.078;2023-01-05T00:10:39;40.47;;;27.03;;
20014;SDS011;61787;42.022;23.078;2023-01-05T00:11:59;42.30;;;28.13;;
20014;SDS011;61787;42.022;23.078;2023-01-05T00:13:19;38.97;;;27.10;;
20014;SDS011;61787;42.022;23.078;2023-01-05T00:14:39;37.57;;;25.87;;
20014;SDS011;61787;42.022;23.078;2023-01-05T00:15:59;37.30;;;25.70;;
20014;SDS011;61787;42.022;23.078;2023-01-05T00:17:20;36.43;;;25.60;;
20014;SDS011;61787;42.022;23.078;2023-01-05T00:18:42;37.47;;;25.73;;
20014;SDS011;61787;42.022;23.078;2023-01-05T00:20:02;39.73;;;25.37;;
20014;SDS011;61787;42.022;23.078;2023-01-05T00:21:24;40.07;;;27.07;;
20014;SDS011;61787;42.022;23.078;2023-01-05T00:23:02;38.10;;;26.90;;
20014;SDS011;61787;42.022;23.078;2023-01-05T00:24:04;38.47;;;27.20;;
20014;SDS011;61787;42.022;23.078;2023-01-05T00:25:08;41.67;;;27.97;;
20014;SDS011;61787;42.022;23.078;2023-01-05T00:26:20;39.33;;;27.03;;
20014;SDS011;61787;42.022;23.078;2023-01-05T00:27:22;37.03;;;26.63;;
20014;SDS011;61787;42.022;23.078;2023-01-05T00:28:23;38.90;;;26.80;;
20014;SDS011;61787;42.022;23.078;2023-01-05T00:29:25;37.60;;;25.73;;
20014;SDS011;61787;42.022;23.078;2023-01-05T00:30:28;38.30;;;26.60;;
20014;SDS011;61787;42.022;23.078;2023-01-05T00:31:32;39.57;;;27.27;;
20014;SDS011;61787;42.022;23.078;2023-01-05T00:32:34;37.47;;;25.70;;
20014;SDS011;61787;42.022;23.078;2023-01-05T00:33:35;46.33;;;29.20;;
20014;SDS011;61787;42.022;23.078;2023-01-05T00:34:37;45.43;;;27.13;;
20014;SDS011;61787;42.022;23.078;2023-01-05T00:35:39;42.67;;;28.50;;
20014;SDS011;61787;42.022;23.078;2023-01-05T00:36:41;60.80;;;37.03;;
20014;SDS011;61787;42.022;23.078;2023-01-05T00:37:42;50.53;;;30.27;;
20014;SDS011;61787;42.022;23.078;2023-01-05T00:38:45;45.10;;;28.13;;
20014;SDS011;61787;42.022;23.078;2023-01-05T00:39:46;40.47;;;28.23;;
20014;SDS011;61787;42.022;23.078;2023-01-05T00:40:48;41.97;;;26.73;;
20014;SDS011;61787;42.022;23.078;2023-01-05T00:41:50;41.53;;;27.37;;
20014;SDS011;61787;42.022;23.078;2023-01-05T00:42:51;42.13;;;27.20;;
20014;SDS011;61787;42.022;23.078;2023-01-05T00:43:53;40.30;;;26.37;;
20014;SDS011;61787;42.022;23.078;2023-01-05T00:44:54;37.60;;;26.53;;
20014;SDS011;61787;42.022;23.078;2023-01-05T00:45:56;38.90;;;27.17;;
20014;SDS011;61787;42.022;23.078;2023-01-05T00:46:58;38.37;;;26.13;;
20014;SDS011;61787;42.022;23.078;2023-01-05T00:47:59;41.77;;;26.80;;
20014;SDS011;61787;42.022;23.078;2023-01-05T00:49:01;44.63;;;28.63;;
20014;SDS011;61787;42.022;23.078;2023-01-05T00:50:03;46.37;;;29.23;;
20014;SDS011;61787;42.022;23.078;2023-01-05T00:51:05;48.40;;;29.67;;
20014;SDS011;61787;42.022;23.078;2023-01-05T00:52:07;41.27;;;28.37;;
20014;SDS011;61787;42.022;23.078;2023-01-05T00:53:09;43.37;;;28.43;;
20014;SDS011;61787;42.022;23.078;2023-01-05T00:54:10;42.83;;;28.53;;
20014;SDS011;61787;42.022;23.078;2023-01-05T00:55:12;43.27;;;29.37;;
20014;SDS011;61787;42.022;23.078;2023-01-05T00:56:14;44.40;;;30.30;;
20014;SDS011;61787;42.022;23.078;2023-01-05T00:57:16;43.70;;;30.63;;
20014;SDS011;61787;42.022;23.078;2023-01-05T00:58:18;42.23;;;29.57;;
20014;SDS011;61787;42.022;23.078;2023-01-05T00:59:19;45.47;;;30.13;;
20014;SDS011;61787;42.022;23.078;2023-01-05T01:00:21;48.43;;;31.27;;
20014;SDS011;61787;42.022;23.078;2023-01-05T01:01:22;47.27;;;31.97;;
20014;SDS011;61787;42.022;23.078;2023-01-05T01:02:24;46.93;;;32.30;;
20014;SDS011;61787;42.022;23.078;2023-01-05T01:03:26;48.10;;;31.77;;
20014;SDS011;61787;42.022;23.078;2023-01-05T01:04:29;45.93;;;30.83;;
20014;SDS011;61787;42.022;23.078;2023-01-05T01:05:31;45.50;;;30.50;;
20014;SDS011;61787;42.022;23.078;2023-01-05T01:06:33;44.60;;;29.93;;
20014;SDS011;61787;42.022;23.078;2023-01-05T01:07:34;41.17;;;27.97;;
20014;SDS011;61787;42.022;23.078;2023-01-05T01:08:36;41.30;;;27.33;;
20014;SDS011;61787;42.022;23.078;2023-01-05T01:09:38;39.47;;;27.80;;
20014;SDS011;61787;42.022;23.078;2023-01-05T01:10:40;42.67;;;28.43;;
20014;SDS011;61787;42.022;23.078;2023-01-05T01:11:42;41.70;;;28.53;;
20014;SDS011;61787;42.022;23.078;2023-01-05T01:12:44;44.77;;;28.17;;
20014;SDS011;61787;42.022;23.078;2023-01-05T01:13:46;42.43;;;28.37;;
20014;SDS011;61787;42.022;23.078;2023-01-05T01:14:48;42.07;;;29.30;;
20014;SDS011;61787;42.022;23.078;2023-01-05T01:15:50;47.40;;;29.37;;
20014;SDS011;61787;42.022;23.078;2023-01-05T01:16:51;42.73;;;28.73;;
20014;SDS011;61787;42.022;23.078;2023-01-05T01:17:53;38.33;;;27.33;;
20014;SDS011;61787;42.022;23.078;2023-01-05T01:18:55;38.43;;;26.83;;
20014;SDS011;61787;42.022;23.078;2023-01-05T01:19:57;40.37;;;28.17;;
20014;SDS011;61787;42.022;23.078;2023-01-05T01:20:59;42.70;;;28.43;;
20014;SDS011;61787;42.022;23.078;2023-01-05T01:22:00;39.43;;;27.60;;
20014;SDS011;61787;42.022;23.078;2023-01-05T01:23:02;41.33;;;26.97;;
20014;SDS011;61787;42.022;23.078;2023-01-05T01:24:04;41.83;;;28.70;;
20014;SDS011;61787;42.022;23.078;2023-01-05T01:25:06;40.40;;;28.13;;
20014;SDS011;61787;42.022;23.078;2023-01-05T01:26:09;39.77;;;27.83;;
20014;SDS011;61787;42.022;23.078;2023-01-05T01:27:13;42.10;;;28.47;;
20014;SDS011;61787;42.022;23.078;2023-01-05T01:28:14;43.97;;;29.13;;
20014;SDS011;61787;42.022;23.078;2023-01-05T01:29:16;42.90;;;28.33;;
20014;SDS011;61787;42.022;23.078;2023-01-05T01:30:18;42.33;;;29.17;;
20014;SDS011;61787;42.022;23.078;2023-01-05T01:31:20;43.33;;;28.77;;
20014;SDS011;61787;42.022;23.078;2023-01-05T01:32:22;43.67;;;28.40;;
20014;SDS011;61787;42.022;23.078;2023-01-05T01:33:25;40.17;;;27.73;;
20014;SDS011;61787;42.022;23.078;2023-01-05T01:34:27;41.27;;;28.50;;
20014;SDS011;61787;42.022;23.078;2023-01-05T01:35:28;41.83;;;27.67;;
20014;SDS011;61787;42.022;23.078;2023-01-05T01:36:30;43.07;;;28.47;;
20014;SDS011;61787;42.022;23.078;2023-01-05T01:37:31;40.50;;;27.80;;
20014;SDS011;61787;42.022;23.078;2023-01-05T01:38:33;41.00;;;27.27;;
20014;SDS011;61787;42.022;23.078;2023-01-05T01:39:35;40.70;;;27.73;;
20014;SDS011;61787;42.022;23.078;2023-01-05T01:40:37;39.57;;;27.00;;
20014;SDS011;61787;42.022;23.078;2023-01-05T01:41:40;39.13;;;26.17;;
20014;SDS011;61787;42.022;23.078;2023-01-05T01:42:42;42.10;;;28.20;;
20014;SDS011;61787;42.022;23.078;2023-01-05T01:44:54;40.63;;;27.20;;
20014;SDS011;61787;42.022;23.078;2023-01-05T01:45:56;44.30;;;28.10;;
20014;SDS011;61787;42.022;23.078;2023-01-05T01:46:58;41.13;;;27.23;;
20014;SDS011;61787;42.022;23.078;2023-01-05T01:48:00;37.80;;;26.33;;
20014;SDS011;61787;42.022;23.078;2023-01-05T01:49:05;41.83;;;27.50;;
20014;SDS011;61787;42.022;23.078;2023-01-05T01:50:18;40.50;;;27.87;;
20014;SDS011;61787;42.022;23.078;2023-01-05T01:51:24;44.43;;;28.90;;
20014;SDS011;61787;42.022;23.078;2023-01-05T01:52:32;40.93;;;28.30;;
20014;SDS011;61787;42.022;23.078;2023-01-05T01:53:37;44.20;;;29.47;;
20014;SDS011;61787;42.022;23.078;2023-01-05T01:54:41;46.17;;;28.83;;
20014;SDS011;61787;42.022;23.078;2023-01-05T01:55:43;43.63;;;29.57;;
20014;SDS011;61787;42.022;23.078;2023-01-05T01:56:46;42.87;;;29.13;;
20014;SDS011;61787;42.022;23.078;2023-01-05T01:57:53;42.63;;;28.90;;
20014;SDS011;61787;42.022;23.078;2023-01-05T01:58:55;42.40;;;28.00;;
20014;SDS011;61787;42.022;23.078;2023-01-05T01:59:57;41.40;;;27.70;;
20014;SDS011;61787;42.022;23.078;2023-01-05T02:01:02;44.00;;;29.13;;
20014;SDS011;61787;42.022;23.078;2023-01-05T02:02:04;42.60;;;28.30;;
20014;SDS011;61787;42.022;23.078;2023-01-05T02:03:08;43.40;;;29.67;;
20014;SDS011;61787;42.022;23.078;2023-01-05T02:04:10;45.57;;;31.93;;
20014;SDS011;61787;42.022;23.078;2023-01-05T02:05:12;45.37;;;30.80;;
20014;SDS011;61787;42.022;23.078;2023-01-05T02:06:16;44.73;;;29.27;;
20014;SDS011;61787;42.022;23.078;2023-01-05T02:07:18;42.20;;;29.70;;
20014;SDS011;61787;42.022;23.078;2023-01-05T02:08:20;41.77;;;28.20;;
20014;SDS011;61787;42.022;23.078;2023-01-05T02:09:31;45.00;;;29.50;;
20014;SDS011;61787;42.022;23.078;2023-01-05T02:15:12;42.83;;;28.97;;
20014;SDS011;61787;42.022;23.078;2023-01-05T02:18:00;43.27;;;27.37;;
20014;SDS011;61787;42.022;23.078;2023-01-05T02:21:56;41.03;;;26.93;;
20014;SDS011;61787;42.022;23.078;2023-01-05T02:23:38;37.90;;;26.73;;
20014;SDS011;61787;42.022;23.078;2023-01-05T02:31:47;39.23;;;25.90;;
20014;SDS011;61787;42.022;23.078;2023-01-05T02:35:45;38.83;;;26.33;;
20014;SDS011;61787;42.022;23.078;2023-01-05T02:37:43;40.07;;;27.50;;
20014;SDS011;61787;42.022;23.078;2023-01-05T02:39:49;40.30;;;26.13;;
20014;SDS011;61787;42.022;23.078;2023-01-05T02:40:56;38.67;;;26.47;;
20014;SDS011;61787;42.022;23.078;2023-01-05T02:42:10;38.80;;;26.60;;
20014;SDS011;61787;42.022;23.078;2023-01-05T02:43:13;37.47;;;25.80;;
20014;SDS011;61787;42.022;23.078;2023-01-05T02:44:20;38.77;;;26.47;;
20014;SDS011;61787;42.022;23.078;2023-01-05T02:45:22;38.07;;;25.77;;
20014;SDS011;61787;42.022;23.078;2023-01-05T02:46:24;36.90;;;26.40;;
20014;SDS011;61787;42.022;23.078;2023-01-05T02:48:28;40.97;;;28.70;;
20014;SDS011;61787;42.022;23.078;2023-01-05T02:49:35;41.70;;;28.87;;
20014;SDS011;61787;42.022;23.078;2023-01-05T02:50:41;45.23;;;31.00;;
20014;SDS011;61787;42.022;23.078;2023-01-05T02:51:50;45.83;;;31.00;;
20014;SDS011;61787;42.022;23.078;2023-01-05T02:54:17;47.20;;;30.97;;
20014;SDS011;61787;42.022;23.078;2023-01-05T02:55:45;47.50;;;32.77;;
20014;SDS011;61787;42.022;23.078;2023-01-05T02:57:15;53.20;;;35.67;;
20014;SDS011;61787;42.022;23.078;2023-01-05T02:58:22;52.83;;;33.67;;
20014;SDS011;61787;42.022;23.078;2023-01-05T02:59:36;52.40;;;34.67;;
20014;SDS011;61787;42.022;23.078;2023-01-05T03:00:45;52.40;;;34.57;;
20014;SDS011;61787;42.022;23.078;2023-01-05T03:02:00;51.93;;;33.90;;
20014;SDS011;61787;42.022;23.078;2023-01-05T03:03:24;55.47;;;34.33;;
20014;SDS011;61787;42.022;23.078;2023-01-05T03:04:36;54.43;;;34.10;;
20014;SDS011;61787;42.022;23.078;2023-01-05T03:05:45;52.30;;;34.50;;
20014;SDS011;61787;42.022;23.078;2023-01-05T03:06:57;54.73;;;36.10;;
20014;SDS011;61787;42.022;23.078;2023-01-05T03:08:02;52.27;;;34.00;;
20014;SDS011;61787;42.022;23.078;2023-01-05T03:09:08;53.00;;;35.00;;
20014;SDS011;61787;42.022;23.078;2023-01-05T03:10:10;56.13;;;35.27;;
20014;SDS011;61787;42.022;23.078;2023-01-05T03:11:35;52.67;;;34.47;;
20014;SDS011;61787;42.022;23.078;2023-01-05T03:13:04;50.47;;;34.40;;
20014;SDS011;61787;42.022;23.078;2023-01-05T03:14:30;49.57;;;33.03;;
20014;SDS011;61787;42.022;23.078;2023-01-05T03:15:36;49.33;;;32.33;;
20014;SDS011;61787;42.022;23.078;2023-01-05T03:16:40;49.50;;;33.43;;
20014;SDS011;61787;42.022;23.078;2023-01-05T03:17:48;46.90;;;32.67;;
20014;SDS011;61787;42.022;23.078;2023-01-05T03:18:52;47.30;;;32.60;;
20014;SDS011;61787;42.022;23.078;2023-01-05T03:20:16;52.67;;;33.10;;
20014;SDS011;61787;42.022;23.078;2023-01-05T03:21:22;50.40;;;33.03;;
20014;SDS011;61787;42.022;23.078;2023-01-05T03:22:27;44.67;;;31.83;;
20014;SDS011;61787;42.022;23.078;2023-01-05T03:23:49;50.47;;;32.10;;
20014;SDS011;61787;42.022;23.078;2023-01-05T03:25:10;49.57;;;32.53;;
20014;SDS011;61787;42.022;23.078;2023-01-05T03:26:34;49.53;;;32.50;;
20014;SDS011;61787;42.022;23.078;2023-01-05T03:27:55;51.53;;;32.83;;
20014;SDS011;61787;42.022;23.078;2023-01-05T03:29:16;55.60;;;34.77;;
20014;SDS011;61787;42.022;23.078;2023-01-05T03:30:49;49.03;;;31.10;;
20014;SDS011;61787;42.022;23.078;2023-01-05T03:32:21;52.73;;;32.17;;
20014;SDS011;61787;42.022;23.078;2023-01-05T03:33:48;50.40;;;31.67;;
20014;SDS011;61787;42.022;23.078;2023-01-05T03:35:15;48.47;;;31.03;;
20014;SDS011;61787;42.022;23.078;2023-01-05T03:36:48;47.20;;;30.67;;
20014;SDS011;61787;42.022;23.078;2023-01-05T03:37:57;37.60;;;25.97;;
20014;SDS011;61787;42.022;23.078;2023-01-05T03:39:04;38.80;;;27.27;;
20014;SDS011;61787;42.022;23.078;2023-01-05T03:40:10;37.83;;;26.47;;
20014;SDS011;61787;42.022;23.078;2023-01-05T03:41:17;36.00;;;24.83;;
20014;SDS011;61787;42.022;23.078;2023-01-05T03:42:21;36.27;;;25.20;;
20014;SDS011;61787;42.022;23.078;2023-01-05T03:43:23;38.13;;;24.50;;
20014;SDS011;61787;42.022;23.078;2023-01-05T03:44:25;34.10;;;23.97;;
20014;SDS011;61787;42.022;23.078;2023-01-05T03:45:31;33.83;;;23.63;;
20014;SDS011;61787;42.022;23.078;2023-01-05T03:46:39;36.50;;;23.20;;
20014;SDS011;61787;42.022;23.078;2023-01-05T03:47:41;34.53;;;22.70;;
20014;SDS011;61787;42.022;23.078;2023-01-05T03:48:42;30.77;;;22.17;;
20014;SDS011;61787;42.022;23.078;2023-01-05T03:49:44;32.83;;;22.40;;
20014;SDS011;61787;42.022;23.078;2023-01-05T03:50:46;32.80;;;23.77;;
20014;SDS011;61787;42.022;23.078;2023-01-05T03:51:47;36.73;;;22.67;;
20014;SDS011;61787;42.022;23.078;2023-01-05T03:52:49;37.57;;;24.13;;
20014;SDS011;61787;42.022;23.078;2023-01-05T03:53:51;35.83;;;23.83;;
20014;SDS011;61787;42.022;23.078;2023-01-05T03:54:52;34.00;;;23.27;;
20014;SDS011;61787;42.022;23.078;2023-01-05T03:55:54;36.33;;;24.83;;
20014;SDS011;61787;42.022;23.078;2023-01-05T03:56:55;42.83;;;29.07;;
20014;SDS011;61787;42.022;23.078;2023-01-05T03:57:57;40.70;;;28.73;;
20014;SDS011;61787;42.022;23.078;2023-01-05T03:58:59;39.93;;;28.83;;
20014;SDS011;61787;42.022;23.078;2023-01-05T04:00:00;43.30;;;29.23;;
20014;SDS011;61787;42.022;23.078;2023-01-05T04:01:02;44.57;;;29.10;;
20014;SDS011;61787;42.022;23.078;2023-01-05T04:02:04;42.47;;;28.67;;
20014;SDS011;61787;42.022;23.078;2023-01-05T04:03:06;45.97;;;30.40;;
20014;SDS011;61787;42.022;23.078;2023-01-05T04:04:09;45.37;;;30.10;;
20014;SDS011;61787;42.022;23.078;2023-01-05T04:05:11;46.27;;;31.20;;
20014;SDS011;61787;42.022;23.078;2023-01-05T04:06:13;53.70;;;33.57;;
20014;SDS011;61787;42.022;23.078;2023-01-05T04:07:15;49.50;;;31.97;;
20014;SDS011;61787;42.022;23.078;2023-01-05T04:08:17;52.10;;;32.77;;
20014;SDS011;61787;42.022;23.078;2023-01-05T04:09:19;49.60;;;33.53;;
20014;SDS011;61787;42.022;23.078;2023-01-05T04:10:20;46.30;;;31.17;;
20014;SDS011;61787;42.022;23.078;2023-01-05T04:11:22;49.40;;;32.37;;
20014;SDS011;61787;42.022;23.078;2023-01-05T04:12:25;45.50;;;32.13;;
20014;SDS011;61787;42.022;23.078;2023-01-05T04:13:26;50.07;;;32.23;;
20014;SDS011;61787;42.022;23.078;2023-01-05T04:14:28;47.20;;;31.13;;
20014;SDS011;61787;42.022;23.078;2023-01-05T04:15:29;45.47;;;30.83;;
20014;SDS011;61787;42.022;23.078;2023-01-05T04:16:31;46.53;;;31.67;;
20014;SDS011;61787;42.022;23.078;2023-01-05T04:17:33;47.07;;;32.50;;
20014;SDS011;61787;42.022;23.078;2023-01-05T04:18:34;48.57;;;33.03;;
20014;SDS011;61787;42.022;23.078;2023-01-05T04:19:36;49.53;;;33.10;;
20014;SDS011;61787;42.022;23.078;2023-01-05T04:20:38;51.03;;;32.00;;
20014;SDS011;61787;42.022;23.078;2023-01-05T04:21:39;47.67;;;33.47;;
20014;SDS011;61787;42.022;23.078;2023-01-05T04:22:41;49.53;;;33.63;;
20014;SDS011;61787;42.022;23.078;2023-01-05T04:23:42;51.10;;;33.43;;
20014;SDS011;61787;42.022;23.078;2023-01-05T04:24:44;48.33;;;32.70;;
20014;SDS011;61787;42.022;23.078;2023-01-05T04:25:46;49.23;;;31.90;;
20014;SDS011;61787;42.022;23.078;2023-01-05T04:26:48;47.77;;;32.53;;
20014;SDS011;61787;42.022;23.078;2023-01-05T04:27:50;48.67;;;33.27;;
20014;SDS011;61787;42.022;23.078;2023-01-05T04:28:52;47.23;;;32.40;;
20014;SDS011;61787;42.022;23.078;2023-01-05T04:29:53;51.20;;;33.13;;
20014;SDS011;61787;42.022;23.078;2023-01-05T04:30:55;63.47;;;42.90;;
20014;SDS011;61787;42.022;23.078;2023-01-05T04:31:57;60.50;;;41.80;;
20014;SDS011;61787;42.022;23.078;2023-01-05T04:32:59;56.23;;;38.10;;
20014;SDS011;61787;42.022;23.078;2023-01-05T04:34:00;50.60;;;36.23;;
20014;SDS011;61787;42.022;23.078;2023-01-05T04:35:02;48.43;;;31.87;;
20014;SDS011;61787;42.022;23.078;2023-01-05T04:36:11;42.27;;;29.97;;
20014;SDS011;61787;42.022;23.078;2023-01-05T04:37:13;45.83;;;30.57;;
20014;SDS011;61787;42.022;23.078;2023-01-05T04:38:15;44.80;;;30.53;;
20014;SDS011;61787;42.022;23.078;2023-01-05T04:39:17;45.63;;;31.80;;
20014;SDS011;61787;42.022;23.078;2023-01-05T04:40:18;49.30;;;32.43;;
20014;SDS011;61787;42.022;23.078;2023-01-05T04:41:20;45.70;;;30.50;;
20014;SDS011;61787;42.022;23.078;2023-01-05T04:42:22;49.10;;;32.73;;
20014;SDS011;61787;42.022;23.078;2023-01-05T04:43:23;47.57;;;31.03;;
20014;SDS011;61787;42.022;23.078;2023-01-05T04:44:25;45.17;;;30.20;;
20014;SDS011;61787;42.022;23.078;2023-01-05T04:45:27;48.87;;;31.93;;
20014;SDS011;61787;42.022;23.078;2023-01-05T04:46:28;50.00;;;33.50;;
20014;SDS011;61787;42.022;23.078;2023-01-05T04:47:31;45.70;;;31.53;;
20014;SDS011;61787;42.022;23.078;2023-01-05T04:48:32;49.63;;;30.97;;
20014;SDS011;61787;42.022;23.078;2023-01-05T04:49:35;45.87;;;31.80;;
20014;SDS011;61787;42.022;23.078;2023-01-05T04:50:37;44.53;;;30.47;;
20014;SDS011;61787;42.022;23.078;2023-01-05T04:51:38;43.57;;;30.03;;
20014;SDS011;61787;42.022;23.078;2023-01-05T04:52:40;46.50;;;31.47;;
20014;SDS011;61787;42.022;23.078;2023-01-05T04:53:41;42.80;;;30.03;;
20014;SDS011;61787;42.022;23.078;2023-01-05T04:54:43;47.63;;;31.93;;
20014;SDS011;61787;42.022;23.078;2023-01-05T04:55:45;51.20;;;31.83;;
20014;SDS011;61787;42.022;23.078;2023-01-05T04:56:46;51.73;;;31.57;;
20014;SDS011;61787;42.022;23.078;2023-01-05T04:57:48;45.33;;;30.80;;
20014;SDS011;61787;42.022;23.078;2023-01-05T04:58:49;48.23;;;31.30;;
20014;SDS011;61787;42.022;23.078;2023-01-05T04:59:51;43.90;;;31.07;;
20014;SDS011;61787;42.022;23.078;2023-01-05T05:00:52;45.90;;;32.40;;
20014;SDS011;61787;42.022;23.078;2023-01-05T05:01:54;48.70;;;31.40;;
20014;SDS011;61787;42.022;23.078;2023-01-05T05:02:56;47.83;;;31.87;;
20014;SDS011;61787;42.022;23.078;2023-01-05T05:03:57;43.87;;;30.63;;
20014;SDS011;61787;42.022;23.078;2023-01-05T05:04:59;49.53;;;32.33;;
20014;SDS011;61787;42.022;23.078;2023-01-05T05:06:01;46.93;;;32.63;;
20014;SDS011;61787;42.022;23.078;2023-01-05T05:07:03;47.00;;;32.20;;
20014;SDS011;61787;42.022;23.078;2023-01-05T05:08:05;49.07;;;33.07;;
20014;SDS011;61787;42.022;23.078;2023-01-05T05:09:06;48.13;;;31.33;;
20014;SDS011;61787;42.022;23.078;2023-01-05T05:10:08;46.60;;;31.73;;
20014;SDS011;61787;42.022;23.078;2023-01-05T05:11:10;47.83;;;31.13;;
20014;SDS011;61787;42.022;23.078;2023-01-05T05:12:11;48.80;;;33.17;;
20014;SDS011;61787;42.022;23.078;2023-01-05T05:13:13;50.37;;;31.73;;
20014;SDS011;61787;42.022;23.078;2023-01-05T05:14:15;46.40;;;31.37;;
20014;SDS011;61787;42.022;23.078;2023-01-05T05:15:17;41.77;;;29.90;;
20014;SDS011;61787;42.022;23.078;2023-01-05T05:16:19;44.33;;;29.80;;
20014;SDS011;61787;42.022;23.078;2023-01-05T05:17:21;42.07;;;29.07;;
20014;SDS011;61787;42.022;23.078;2023-01-05T05:18:22;42.50;;;29.87;;
20014;SDS011;61787;42.022;23.078;2023-01-05T05:19:24;40.20;;;29.03;;
20014;SDS011;61787;42.022;23.078;2023-01-05T05:20:26;48.87;;;29.93;;
20014;SDS011;61787;42.022;23.078;2023-01-05T05:21:27;42.87;;;28.33;;
20014;SDS011;61787;42.022;23.078;2023-01-05T05:22:29;42.00;;;28.90;;
20014;SDS011;61787;42.022;23.078;2023-01-05T05:23:31;42.97;;;29.57;;
20014;SDS011;61787;42.022;23.078;2023-01-05T05:24:32;42.43;;;30.07;;
20014;SDS011;61787;42.022;23.078;2023-01-05T05:25:34;44.43;;;29.60;;
20014;SDS011;61787;42.022;23.078;2023-01-05T05:26:36;45.37;;;30.17;;
20014;SDS011;61787;42.022;23.078;2023-01-05T05:27:37;47.80;;;31.67;;
20014;SDS011;61787;42.022;23.078;2023-01-05T05:28:39;48.83;;;31.80;;
20014;SDS011;61787;42.022;23.078;2023-01-05T05:29:41;49.93;;;32.30;;
20014;SDS011;61787;42.022;23.078;2023-01-05T05:30:42;53.87;;;34.23;;
20014;SDS011;61787;42.022;23.078;2023-01-05T05:31:44;54.00;;;33.57;;
20014;SDS011;61787;42.022;23.078;2023-01-05T05:32:46;58.47;;;36.27;;
20014;SDS011;61787;42.022;23.078;2023-01-05T05:33:47;51.60;;;36.20;;
20014;SDS011;61787;42.022;23.078;2023-01-05T05:34:49;51.83;;;34.53;;
20014;SDS011;61787;42.022;23.078;2023-01-05T05:35:50;48.33;;;32.70;;
20014;SDS011;61787;42.022;23.078;2023-01-05T05:36:52;49.77;;;33.07;;
20014;SDS011;61787;42.022;23.078;2023-01-05T05:37:54;50.97;;;33.73;;
20014;SDS011;61787;42.022;23.078;2023-01-05T05:38:57;53.43;;;36.27;;
20014;SDS011;61787;42.022;23.078;2023-01-05T05:39:59;53.53;;;34.20;;
20014;SDS011;61787;42.022;23.078;2023-01-05T05:41:00;53.87;;;35.60;;
20014;SDS011;61787;42.022;23.078;2023-01-05T05:42:02;52.60;;;33.37;;
20014;SDS011;61787;42.022;23.078;2023-01-05T05:43:03;50.70;;;33.50;;
20014;SDS011;61787;42.022;23.078;2023-01-05T05:44:05;46.47;;;31.23;;
20014;SDS011;61787;42.022;23.078;2023-01-05T05:45:07;45.93;;;31.50;;
20014;SDS011;61787;42.022;23.078;2023-01-05T05:46:09;47.13;;;31.50;;
20014;SDS011;61787;42.022;23.078;2023-01-05T05:47:11;43.70;;;29.80;;
20014;SDS011;61787;42.022;23.078;2023-01-05T05:48:12;45.17;;;31.00;;
20014;SDS011;61787;42.022;23.078;2023-01-05T05:49:14;54.70;;;34.33;;
20014;SDS011;61787;42.022;23.078;2023-01-05T05:50:16;56.97;;;34.03;;
20014;SDS011;61787;42.022;23.078;2023-01-05T05:51:17;57.27;;;36.70;;
20014;SDS011;61787;42.022;23.078;2023-01-05T05:52:19;57.43;;;35.77;;
20014;SDS011;61787;42.022;23.078;2023-01-05T05:53:20;54.77;;;34.87;;
20014;SDS011;61787;42.022;23.078;2023-01-05T05:54:22;48.90;;;30.63;;
20014;SDS011;61787;42.022;23.078;2023-01-05T05:55:23;44.83;;;31.03;;
20014;SDS011;61787;42.022;23.078;2023-01-05T05:56:25;43.93;;;30.07;;
20014;SDS011;61787;42.022;23.078;2023-01-05T05:57:27;41.73;;;29.63;;
20014;SDS011;61787;42.022;23.078;2023-01-05T05:58:28;44.73;;;30.60;;
20014;SDS011;61787;42.022;23.078;2023-01-05T05:59:30;45.10;;;30.87;;
20014;SDS011;61787;42.022;23.078;2023-01-05T06:00:31;43.87;;;31.00;;
20014;SDS011;61787;42.022;23.078;2023-01-05T06:01:33;43.43;;;30.13;;
20014;SDS011;61787;42.022;23.078;2023-01-05T06:02:35;43.80;;;30.83;;
20014;SDS011;61787;42.022;23.078;2023-01-05T06:03:37;43.33;;;29.90;;
20014;SDS011;61787;42.022;23.078;2023-01-05T06:04:39;46.07;;;30.37;;
20014;SDS011;61787;42.022;23.078;2023-01-05T06:05:40;45.70;;;31.03;;
20014;SDS011;61787;42.022;23.078;2023-01-05T06:06:42;46.03;;;31.27;;
20014;SDS011;61787;42.022;23.078;2023-01-05T06:07:44;49.10;;;32.20;;
20014;SDS011;61787;42.022;23.078;2023-01-05T06:08:45;44.97;;;29.97;;
20014;SDS011;61787;42.022;23.078;2023-01-05T06:09:47;42.57;;;29.20;;
20014;SDS011;61787;42.022;23.078;2023-01-05T06:10:49;43.23;;;30.23;;
20014;SDS011;61787;42.022;23.078;2023-01-05T06:11:51;42.60;;;29.00;;
20014;SDS011;61787;42.022;23.078;2023-01-05T06:12:53;44.73;;;30.07;;
20014;SDS011;61787;42.022;23.078;2023-01-05T06:13:55;42.23;;;30.03;;
20014;SDS011;61787;42.022;23.078;2023-01-05T06:14:57;46.67;;;30.97;;
20014;SDS011;61787;42.022;23.078;2023-01-05T06:15:58;41.80;;;29.30;;
20014;SDS011;61787;42.022;23.078;2023-01-05T06:17:00;44.30;;;29.47;;
20014;SDS011;61787;42.022;23.078;2023-01-05T06:18:02;47.70;;;29.17;;
20014;SDS011;61787;42.022;23.078;2023-01-05T06:19:04;46.80;;;31.93;;
20014;SDS011;61787;42.022;23.078;2023-01-05T06:20:06;46.33;;;30.67;;
20014;SDS011;61787;42.022;23.078;2023-01-05T06:21:09;44.27;;;30.40;;
20014;SDS011;61787;42.022;23.078;2023-01-05T06:22:11;42.97;;;28.60;;
20014;SDS011;61787;42.022;23.078;2023-01-05T06:23:12;42.23;;;29.57;;
20014;SDS011;61787;42.022;23.078;2023-01-05T06:24:14;42.50;;;28.87;;
20014;SDS011;61787;42.022;23.078;2023-01-05T06:25:16;46.13;;;30.30;;
20014;SDS011;61787;42.022;23.078;2023-01-05T06:26:18;48.30;;;33.30;;
20014;SDS011;61787;42.022;23.078;2023-01-05T06:27:20;49.53;;;32.60;;
20014;SDS011;61787;42.022;23.078;2023-01-05T06:28:21;51.67;;;33.10;;
20014;SDS011;61787;42.022;23.078;2023-01-05T06:29:23;48.57;;;30.37;;
20014;SDS011;61787;42.022;23.078;2023-01-05T06:30:25;46.47;;;31.80;;
20014;SDS011;61787;42.022;23.078;2023-01-05T06:31:27;47.67;;;32.13;;
20014;SDS011;61787;42.022;23.078;2023-01-05T06:32:29;48.13;;;32.13;;
20014;SDS011;61787;42.022;23.078;2023-01-05T06:33:30;51.27;;;31.47;;
20014;SDS011;61787;42.022;23.078;2023-01-05T06:34:32;47.97;;;30.03;;
20014;SDS011;61787;42.022;23.078;2023-01-05T06:35:33;43.13;;;30.60;;